Time;durP1;ratioP1;P1;durP2;ratioP2;P2;SDS_P1;SDS_P2;PMS_P1;PMS_P2;Temp;Humidity;BMP_temperature;BMP_pressure;BME280_temperature;BME280_humidity;BME280_pressure;Samples;Min_cycle;Max_cycle;Signal;HPM_P1;HPM_P2
2021/04/22 00:00:45;;;;;;;1.2;1.1;;;;;;;6.91;69.26758;937.8057;;;;
2021/04/22 00:03:10;;;;;;;1.6;1.3;;;;;;;6.98;69.0625;937.7961;;;;
2021/04/22 00:05:35;;;;;;;2.3;1;;;;;;;6.91;69.2793;937.8484;;;;
2021/04/22 00:08:00;;;;;;;1.1;1;;;;;;;6.86;69.54199;937.8117;;;;
2021/04/22 00:10:37;;;;;;;1.5;1;;;;;;;6.91;69.39258;937.8057;;;;
2021/04/22 00:13:06;;;;;;;1.7;1.3;;;;;;;6.91;69.29004;937.8122;;;;
2021/04/22 00:15:52;;;;;;;1.6;1.2;;;;;;;6.97;69.15137;937.7729;;;;
2021/04/22 00:18:17;;;;;;;2;1.4;;;;;;;6.94;69.0791;937.774;;;;
2021/04/22 00:20:45;;;;;;;2.5;1.3;;;;;;;6.87;69.06836;937.8191;;;;
2021/04/22 00:23:10;;;;;;;2.2;1.5;;;;;;;6.8;69.34082;937.826;;;;
2021/04/22 00:25:42;;;;;;;1.4;1;;;;;;;6.69;69.83203;937.788;;;;
2021/04/22 00:28:07;;;;;;;5.5;2;;;;;;;6.71;69.94824;937.82;;;;
2021/04/22 00:30:32;;;;;;;2.9;1.2;;;;;;;6.73;69.91797;937.845;;;;
2021/04/22 00:32:58;;;;;;;2.4;1.2;;;;;;;6.7;69.85547;937.7928;;;;
2021/04/22 00:35:23;;;;;;;2;1.1;;;;;;;6.7;69.94727;937.717;;;;
2021/04/22 00:37:49;;;;;;;6.3;1.7;;;;;;;6.79;69.64453;937.8226;;;;
2021/04/22 00:40:14;;;;;;;4;1.6;;;;;;;6.81;69.65918;937.8582;;;;
2021/04/22 00:42:40;;;;;;;1.1;1;;;;;;;6.77;69.79883;937.7825;;;;
2021/04/22 00:45:05;;;;;;;1.2;1.1;;;;;;;6.77;69.61816;937.7722;;;;
2021/04/22 00:47:32;;;;;;;2.3;1.2;;;;;;;6.78;69.53027;937.767;;;;
2021/04/22 00:49:57;;;;;;;1.1;1;;;;;;;6.81;69.20605;937.7916;;;;
2021/04/22 00:52:24;;;;;;;1.7;1.5;;;;;;;6.74;69.29688;937.7445;;;;
2021/04/22 00:54:49;;;;;;;2.5;1.1;;;;;;;6.62;69.58301;937.7245;;;;
2021/04/22 00:57:18;;;;;;;1.3;1.1;;;;;;;6.52;70.08594;937.7645;;;;
2021/04/22 00:59:43;;;;;;;1.7;1.2;;;;;;;6.5;70.22949;937.7229;;;;
2021/04/22 01:02:11;;;;;;;2.5;1.4;;;;;;;6.35;70.77051;937.7452;;;;
2021/04/22 01:04:36;;;;;;;1.7;1.1;;;;;;;6.25;71.13965;937.7769;;;;
2021/04/22 01:07:02;;;;;;;1.7;1.5;;;;;;;6.11;71.91797;937.7104;;;;
2021/04/22 01:09:27;;;;;;;2;1.4;;;;;;;6.12;72.12402;937.7274;;;;
2021/04/22 01:11:54;;;;;;;0.8;0.8;;;;;;;6.25;71.64844;937.8346;;;;
2021/04/22 01:14:25;;;;;;;2.7;1.5;;;;;;;6.21;71.50391;937.8342;;;;
2021/04/22 01:16:54;;;;;;;1.8;1.3;;;;;;;6.11;71.91797;937.8529;;;;
2021/04/22 01:19:30;;;;;;;1.9;1.6;;;;;;;6.13;72.14648;937.7878;;;;
2021/04/22 01:21:57;;;;;;;1.9;1.5;;;;;;;6.06;72.56543;937.8137;;;;
2021/04/22 01:24:22;;;;;;;1.2;1.1;;;;;;;6.09;72.60449;937.8389;;;;
2021/04/22 01:26:47;;;;;;;3;1.2;;;;;;;6.13;72.44043;937.813;;;;
2021/04/22 01:29:16;;;;;;;1.7;1.4;;;;;;;6.04;72.73242;937.8014;;;;
2021/04/22 01:31:41;;;;;;;3.8;1.6;;;;;;;6.08;72.7832;937.8522;;;;
2021/04/22 01:34:09;;;;;;;2.5;1.5;;;;;;;6.17;72.56152;937.8844;;;;
2021/04/22 01:36:38;;;;;;;1.6;1.4;;;;;;;6.31;72.22266;937.8738;;;;
2021/04/22 01:39:04;;;;;;;2.1;1.5;;;;;;;6.1;73.53223;938.0391;;;;
2021/04/22 01:41:34;;;;;;;1.9;1.5;;;;;;;6.08;73.58398;938.2219;;;;
2021/04/22 01:44:00;;;;;;;1.5;1.2;;;;;;;5.92;74.15625;938.2303;;;;
2021/04/22 01:46:29;;;;;;;3.6;1.2;;;;;;;6.04;74.17676;938.2297;;;;
2021/04/22 01:49:02;;;;;;;1.5;1.4;;;;;;;6.07;74.48828;938.255;;;;
2021/04/22 01:51:33;;;;;;;1.8;1.3;;;;;;;6.18;74.07715;938.231;;;;
2021/04/22 01:53:58;;;;;;;3.2;1.4;;;;;;;6.36;73.44141;938.3212;;;;
2021/04/22 01:56:30;;;;;;;3.5;1.7;;;;;;;6.41;72.96289;938.3416;;;;
2021/04/22 01:59:02;;;;;;;1.3;1.2;;;;;;;6.32;73.23145;938.3328;;;;
2021/04/22 02:01:34;;;;;;;1.1;0.9;;;;;;;6.31;73.37598;938.2938;;;;
2021/04/22 02:04:01;;;;;;;6.4;1.9;;;;;;;6.24;73.76074;938.3664;;;;
2021/04/22 02:06:26;;;;;;;2.5;1.6;;;;;;;6.25;74.67773;938.3586;;;;
2021/04/22 02:11:26;;;;;;;3.5;1.6;;;;;;;6.01;75.68457;938.3636;;;;
2021/04/22 02:13:53;;;;;;;5.6;1.5;;;;;;;5.92;75.90723;938.3898;;;;
2021/04/22 02:16:36;;;;;;;2;1.4;;;;;;;6;75.85352;938.3887;;;;
2021/04/22 02:19:03;;;;;;;2.1;1.5;;;;;;;6.06;76.38477;938.3986;;;;
2021/04/22 02:21:33;;;;;;;1.9;1.3;;;;;;;6.03;76.20898;938.378;;;;
2021/04/22 02:23:58;;;;;;;1.7;1.1;;;;;;;6.03;76.96582;938.3723;;;;
2021/04/22 02:26:25;;;;;;;2.4;1.8;;;;;;;6.05;77.45508;938.3746;;;;
2021/04/22 02:28:50;;;;;;;2;1.4;;;;;;;6.09;77.80371;938.4461;;;;
2021/04/22 02:31:18;;;;;;;1.6;1.2;;;;;;;6.19;76.84668;938.4185;;;;
2021/04/22 02:33:53;;;;;;;1.5;1.2;;;;;;;6.26;75.71777;938.3787;;;;
2021/04/22 02:36:14;;;;;;;2.4;1.3;;;;;;;6.3;75.94043;938.3995;;;;
2021/04/22 02:38:42;;;;;;;2.7;1.4;;;;;;;6.28;76.58203;938.4441;;;;
2021/04/22 02:41:07;;;;;;;3.7;1.6;;;;;;;6.22;76.94531;938.437;;;;
2021/04/22 02:43:33;;;;;;;1.7;1.2;;;;;;;6.17;76.95605;938.391;;;;
2021/04/22 02:45:59;;;;;;;2.3;1.2;;;;;;;6.15;77.25977;938.3574;;;;
2021/04/22 02:48:26;;;;;;;1.2;1.1;;;;;;;6.16;77.38574;938.2455;;;;
2021/04/22 02:50:52;;;;;;;2.4;1.3;;;;;;;6.34;76.80664;938.2723;;;;
2021/04/22 02:53:17;;;;;;;1.4;1.2;;;;;;;6.39;76.16016;938.2665;;;;
2021/04/22 02:55:44;;;;;;;1.6;1.2;;;;;;;6.45;75.65137;938.2589;;;;
2021/04/22 02:58:10;;;;;;;1.8;1.2;;;;;;;6.53;75.39453;938.1724;;;;
2021/04/22 03:00:35;;;;;;;1.6;1.1;;;;;;;6.62;75.18164;938.1849;;;;
2021/04/22 03:03:02;;;;;;;3.7;0.9;;;;;;;6.66;74.66992;938.1813;;;;
2021/04/22 03:05:27;;;;;;;1.8;1.6;;;;;;;6.7;74.48535;938.1512;;;;
2021/04/22 03:07:53;;;;;;;6;1.8;;;;;;;6.71;74.32813;938.1436;;;;
2021/04/22 03:10:20;;;;;;;3.5;1.6;;;;;;;6.52;75.04004;938.1181;;;;
2021/04/22 03:12:47;;;;;;;2.4;1.7;;;;;;;6.3;75.93066;938.144;;;;
2021/04/22 03:15:12;;;;;;;1.9;1.4;;;;;;;5.91;77.75684;938.1611;;;;
2021/04/22 03:17:40;;;;;;;2.6;1.4;;;;;;;5.65;78.98828;938.1071;;;;
2021/04/22 03:20:06;;;;;;;1.9;1.7;;;;;;;5.61;80.14258;938.1548;;;;
2021/04/22 03:22:33;;;;;;;2.9;1.8;;;;;;;5.81;80.6084;938.1234;;;;
2021/04/22 03:24:58;;;;;;;1.9;1.6;;;;;;;5.86;80.77539;938.1476;;;;
2021/04/22 03:27:27;;;;;;;2.4;1.7;;;;;;;5.82;81.32129;938.1694;;;;
2021/04/22 03:29:57;;;;;;;3.2;1.5;;;;;;;5.88;81.39941;938.1322;;;;
2021/04/22 03:32:23;;;;;;;2;1.3;;;;;;;5.96;81.37012;938.1387;;;;
2021/04/22 03:34:49;;;;;;;1.8;1.3;;;;;;;5.94;81.70508;938.1944;;;;
2021/04/22 03:37:14;;;;;;;1.6;0.9;;;;;;;6.01;81.43848;938.2464;;;;
2021/04/22 03:39:41;;;;;;;1.3;1.1;;;;;;;5.84;82.2168;938.3027;;;;
2021/04/22 03:42:06;;;;;;;1.9;1.4;;;;;;;5.91;82.28613;938.2322;;;;
2021/04/22 03:44:32;;;;;;;3.1;1.7;;;;;;;5.91;82.28906;938.223;;;;
2021/04/22 03:46:57;;;;;;;1.5;1.2;;;;;;;5.97;82.23242;938.3058;;;;
2021/04/22 03:49:25;;;;;;;2.8;1.8;;;;;;;6.09;81.78125;938.3148;;;;
2021/04/22 03:51:50;;;;;;;5.4;1.5;;;;;;;6.13;81.4248;938.3411;;;;
2021/04/22 03:54:17;;;;;;;3.1;1.5;;;;;;;6.24;80.9707;938.3884;;;;
2021/04/22 03:56:42;;;;;;;1.8;1.4;;;;;;;6.28;80.58398;938.3949;;;;
2021/04/22 03:59:10;;;;;;;2.8;1.3;;;;;;;6.33;80.30957;938.3812;;;;
2021/04/22 04:02:30;;;;;;;2.3;1.7;;;;;;;6.45;79.7793;938.3672;;;;
2021/04/22 04:04:55;;;;;;;2.3;1.8;;;;;;;6.51;79.57617;938.4629;;;;
2021/04/22 04:07:22;;;;;;;1.9;1.5;;;;;;;6.51;78.92969;938.4953;;;;
2021/04/22 04:09:47;;;;;;;2.7;1.8;;;;;;;6.41;79.04688;938.4984;;;;
2021/04/22 04:12:14;;;;;;;2.1;1.5;;;;;;;6.39;79.45117;938.4975;;;;
2021/04/22 04:14:39;;;;;;;4.6;1.8;;;;;;;6.45;79.39355;938.5142;;;;
2021/04/22 04:17:07;;;;;;;2.8;1.8;;;;;;;6.38;79.50586;938.4291;;;;
2021/04/22 04:19:33;;;;;;;1.3;1.2;;;;;;;6.42;79.46875;938.4534;;;;
2021/04/22 04:21:58;;;;;;;1.7;1.5;;;;;;;6.55;79.01758;938.5485;;;;
2021/04/22 04:24:25;;;;;;;1.6;1.5;;;;;;;6.56;78.18164;938.5544;;;;
2021/04/22 04:26:51;;;;;;;3;1.8;;;;;;;6.52;78.37891;938.5667;;;;
2021/04/22 04:29:17;;;;;;;2.5;1.5;;;;;;;6.4;78.83203;938.6473;;;;
2021/04/22 04:31:42;;;;;;;1.4;1.2;;;;;;;6.44;78.91797;938.5671;;;;
2021/04/22 04:34:09;;;;;;;2.5;2;;;;;;;6.25;78.93945;938.6149;;;;
2021/04/22 04:36:34;;;;;;;1.7;1.2;;;;;;;6.28;79.14844;938.6022;;;;
2021/04/22 04:39:00;;;;;;;2.6;1.6;;;;;;;6.35;78.69824;938.6223;;;;
2021/04/22 04:41:25;;;;;;;2.2;1.7;;;;;;;6.51;78.54492;938.7073;;;;
2021/04/22 04:43:53;;;;;;;1.9;1.2;;;;;;;6.53;78.22168;938.8122;;;;
2021/04/22 04:46:18;;;;;;;3.4;1.6;;;;;;;6.34;78.97754;938.8456;;;;
2021/04/22 04:48:45;;;;;;;1.3;1.2;;;;;;;6.29;79.47754;938.8516;;;;
2021/04/22 04:51:11;;;;;;;2.1;1.7;;;;;;;6.3;79.54883;938.8542;;;;
2021/04/22 04:53:39;;;;;;;1.3;1.2;;;;;;;6.29;79.74902;938.8619;;;;
2021/04/22 04:56:04;;;;;;;3.1;1.8;;;;;;;6.18;80.36133;938.8697;;;;
2021/04/22 04:58:32;;;;;;;1.7;1.6;;;;;;;6.16;80.54883;938.9166;;;;
2021/04/22 05:00:58;;;;;;;4.5;1.6;;;;;;;6.16;80.77441;938.9229;;;;
2021/04/22 05:03:24;;;;;;;2.8;1.7;;;;;;;6.33;80.01758;939.0029;;;;
2021/04/22 05:05:49;;;;;;;1.3;1.2;;;;;;;6.35;79.38574;939.0357;;;;
2021/04/22 05:08:15;;;;;;;3.5;2;;;;;;;6.4;79.27344;939.0064;;;;
2021/04/22 05:10:40;;;;;;;4;2;;;;;;;6.48;79.18457;938.9721;;;;
2021/04/22 05:13:07;;;;;;;1.8;1.5;;;;;;;6.6;78.73145;938.9167;;;;
2021/04/22 05:15:39;;;;;;;2.4;1.8;;;;;;;6.65;78.53809;938.9048;;;;
2021/04/22 05:18:04;;;;;;;1.8;1.3;;;;;;;6.71;77.92676;938.9688;;;;
2021/04/22 05:20:32;;;;;;;3;1.8;;;;;;;6.73;77.99805;938.97;;;;
2021/04/22 05:22:57;;;;;;;2.4;1.6;;;;;;;6.7;78.16309;938.9893;;;;
2021/04/22 05:25:24;;;;;;;1.9;1.5;;;;;;;6.75;77.44531;939.0472;;;;
2021/04/22 05:27:49;;;;;;;1.9;1.6;;;;;;;6.91;77.27246;939.0151;;;;
2021/04/22 05:30:16;;;;;;;2;1.4;;;;;;;6.84;75.99121;939.0641;;;;
2021/04/22 05:32:41;;;;;;;2.2;1.7;;;;;;;6.68;76.81152;939.0978;;;;
2021/04/22 05:35:07;;;;;;;2;1.3;;;;;;;6.68;76.9375;939.0623;;;;
2021/04/22 05:37:33;;;;;;;1.6;1.5;;;;;;;7.11;75.83594;939.108;;;;
2021/04/22 05:39:58;;;;;;;2.3;1.4;;;;;;;7.57;74.41895;939.0889;;;;
2021/04/22 05:42:23;;;;;;;3.1;1.7;;;;;;;7.81;72.78125;939.0356;;;;
2021/04/22 05:44:49;;;;;;;1.3;1.2;;;;;;;8;72.45215;939.105;;;;
2021/04/22 05:47:14;;;;;;;6.6;1.6;;;;;;;8.21;72.4873;939.0463;;;;
2021/04/22 05:49:42;;;;;;;1.9;1.4;;;;;;;8.71;70.84082;939.0833;;;;
2021/04/22 05:52:07;;;;;;;2.6;1.4;;;;;;;9.07;69.33203;939.0424;;;;
2021/04/22 05:54:33;;;;;;;2.7;1.6;;;;;;;9.74;66.51074;939.0881;;;;
2021/04/22 05:56:58;;;;;;;3;1.3;;;;;;;10.63;63.46191;939.1133;;;;
2021/04/22 05:59:25;;;;;;;2.4;1.4;;;;;;;10.85;61.7793;939.0306;;;;
2021/04/22 06:01:50;;;;;;;2.6;1;;;;;;;10.24;63.46191;939.1347;;;;
2021/04/22 06:04:16;;;;;;;2.4;1.2;;;;;;;9.87;65.26563;939.1252;;;;
2021/04/22 06:06:41;;;;;;;2.4;1.3;;;;;;;9.64;66.58594;939.2131;;;;
2021/04/22 06:09:08;;;;;;;1.8;1.4;;;;;;;9.24;67.28613;939.2192;;;;
2021/04/22 06:11:33;;;;;;;2.5;1.5;;;;;;;8.91;69.07813;939.207;;;;
2021/04/22 06:13:59;;;;;;;1.9;1.6;;;;;;;8.69;70.2959;939.1942;;;;
2021/04/22 06:16:25;;;;;;;2.2;1.5;;;;;;;8.7;71.27344;939.2586;;;;
2021/04/22 06:18:51;;;;;;;2.3;1.2;;;;;;;9;71.00586;939.2236;;;;
2021/04/22 06:21:17;;;;;;;2.6;1.3;;;;;;;9.1;71.12305;939.2438;;;;
2021/04/22 06:23:43;;;;;;;2.7;1.3;;;;;;;9.23;70.93848;939.2048;;;;
2021/04/22 06:26:08;;;;;;;2.2;1.6;;;;;;;9.28;70.45801;939.2183;;;;
2021/04/22 06:28:35;;;;;;;2.4;1.5;;;;;;;9.22;70.12891;939.2722;;;;
2021/04/22 06:31:00;;;;;;;2.8;1.5;;;;;;;9.39;69.56445;939.3488;;;;
2021/04/22 06:33:26;;;;;;;1.4;1.2;;;;;;;9.57;68.91016;939.3262;;;;
2021/04/22 06:35:51;;;;;;;1.8;1.2;;;;;;;9.67;66.97949;939.3647;;;;
2021/04/22 06:38:17;;;;;;;2.8;1.5;;;;;;;9.86;66.40332;939.3621;;;;
2021/04/22 06:40:43;;;;;;;2.6;1.3;;;;;;;9.68;67.18555;939.3538;;;;
2021/04/22 06:43:12;;;;;;;2.4;1.2;;;;;;;9.85;66.26465;939.4152;;;;
2021/04/22 06:45:34;;;;;;;1.4;1.2;;;;;;;9.91;66.0127;939.4288;;;;
2021/04/22 06:47:59;;;;;;;1.1;0.9;;;;;;;9.96;66.03027;939.4461;;;;
2021/04/22 06:50:25;;;;;;;4.6;1.8;;;;;;;10.02;65.26465;939.483;;;;
2021/04/22 06:52:50;;;;;;;2.5;1.6;;;;;;;10.13;66.44629;939.5156;;;;
2021/04/22 06:55:15;;;;;;;3.7;1.9;;;;;;;10;66.3457;939.5319;;;;
2021/04/22 06:57:40;;;;;;;2.9;1.6;;;;;;;10.16;67.44238;939.6233;;;;
2021/04/22 07:00:05;;;;;;;4.5;2.8;;;;;;;10.17;66.39453;939.7214;;;;
2021/04/22 07:02:30;;;;;;;14.2;6.2;;;;;;;10.05;66.52344;939.7459;;;;
2021/04/22 07:04:56;;;;;;;9.5;5;;;;;;;10.1;66.96484;939.7656;;;;
2021/04/22 07:07:21;;;;;;;15.2;7.3;;;;;;;9.99;67.63281;939.7449;;;;
2021/04/22 07:09:47;;;;;;;2.5;1.7;;;;;;;9.85;67.62109;939.8272;;;;
2021/04/22 07:12:13;;;;;;;2.7;1.7;;;;;;;9.73;67.89941;939.8084;;;;
2021/04/22 07:14:38;;;;;;;2.2;1.4;;;;;;;9.55;69.125;939.8563;;;;
2021/04/22 07:17:03;;;;;;;2.8;1.2;;;;;;;9.25;70.76074;939.9036;;;;
2021/04/22 07:19:30;;;;;;;2.8;1.8;;;;;;;9.28;71.6084;939.9112;;;;
2021/04/22 07:21:55;;;;;;;1.6;1.3;;;;;;;9.23;72.22461;939.9469;;;;
2021/04/22 07:24:21;;;;;;;2.4;1.7;;;;;;;9.06;73.1084;939.943;;;;
2021/04/22 07:26:46;;;;;;;2.3;1.5;;;;;;;9.09;72.19238;939.9189;;;;
2021/04/22 07:29:13;;;;;;;1.3;1.2;;;;;;;9.22;69.75391;939.9554;;;;
2021/04/22 07:31:38;;;;;;;2.5;1.5;;;;;;;9.39;70.14551;939.9854;;;;
2021/04/22 07:34:04;;;;;;;2.8;1.5;;;;;;;9.75;68.80273;940.0298;;;;
2021/04/22 07:36:29;;;;;;;2.1;1.4;;;;;;;9.99;65.7627;939.9564;;;;
2021/04/22 07:38:56;;;;;;;3.1;1.2;;;;;;;10.74;64.12891;939.895;;;;
2021/04/22 07:41:21;;;;;;;3.1;1.2;;;;;;;11.16;62.70508;939.9844;;;;
2021/04/22 07:43:48;;;;;;;2;1.2;;;;;;;10.93;62.38672;939.8599;;;;
2021/04/22 07:46:13;;;;;;;2.2;1.2;;;;;;;11.11;62.51465;939.9529;;;;
2021/04/22 07:48:39;;;;;;;1.6;1;;;;;;;11.41;63.43848;939.9392;;;;
2021/04/22 07:51:04;;;;;;;3.9;1.7;;;;;;;11.9;61.50586;939.9442;;;;
2021/04/22 07:53:30;;;;;;;3.6;1.5;;;;;;;12.7;58.2002;939.9161;;;;
2021/04/22 07:55:55;;;;;;;1.2;0.9;;;;;;;12.93;57.46191;939.9044;;;;
2021/04/22 07:58:20;;;;;;;1.2;1;;;;;;;13.1;54.95703;939.8939;;;;
2021/04/22 08:00:45;;;;;;;1.6;1;;;;;;;13.2;55.625;939.8817;;;;
2021/04/22 08:03:13;;;;;;;0.9;0.9;;;;;;;13.25;55.83789;939.8845;;;;
2021/04/22 08:05:37;;;;;;;1.9;1.2;;;;;;;12.96;56.16699;939.8949;;;;
2021/04/22 08:08:02;;;;;;;0.7;0.7;;;;;;;12.87;56.82227;939.9258;;;;
2021/04/22 08:10:27;;;;;;;2.5;1.2;;;;;;;12.91;55.49707;939.9076;;;;
2021/04/22 08:12:54;;;;;;;3.1;1;;;;;;;12.76;56.8877;939.9363;;;;
2021/04/22 08:15:25;;;;;;;1.3;1.2;;;;;;;12.74;56.48438;939.9451;;;;
2021/04/22 08:17:50;;;;;;;4.5;1.1;;;;;;;12.63;56.06738;939.9486;;;;
2021/04/22 08:20:16;;;;;;;1.7;1;;;;;;;12.6;56.83203;939.937;;;;
2021/04/22 08:22:41;;;;;;;3.5;1.7;;;;;;;12.93;55.64746;939.9149;;;;
2021/04/22 08:25:08;;;;;;;3.7;1.3;;;;;;;13;54.45215;939.911;;;;
2021/04/22 08:27:33;;;;;;;2.6;1.3;;;;;;;12.99;54.95508;939.9533;;;;
2021/04/22 08:29:58;;;;;;;0.8;0.8;;;;;;;13.22;56.08691;939.9668;;;;
2021/04/22 08:32:25;;;;;;;2.7;1.2;;;;;;;13.51;53.37695;939.9475;;;;
2021/04/22 08:34:50;;;;;;;2.3;0.8;;;;;;;13.68;52.08594;939.9478;;;;
2021/04/22 08:37:16;;;;;;;2;1.2;;;;;;;13.78;52.62793;939.9311;;;;
2021/04/22 08:39:41;;;;;;;2.2;1.3;;;;;;;13.65;51.78418;939.9431;;;;
2021/04/22 08:42:08;;;;;;;2.6;0.9;;;;;;;13.57;51.7168;939.8371;;;;
2021/04/22 08:44:33;;;;;;;1.4;1;;;;;;;13.2;51.64941;939.8641;;;;
2021/04/22 08:46:59;;;;;;;1.6;1.3;;;;;;;12.74;53.5459;939.8236;;;;
2021/04/22 08:49:24;;;;;;;1.9;1.3;;;;;;;12.77;54.58301;939.7822;;;;
2021/04/22 08:51:51;;;;;;;2.1;1.4;;;;;;;13.35;53.62109;939.8326;;;;
2021/04/22 08:54:16;;;;;;;2.6;1.4;;;;;;;13.72;52.16016;939.7645;;;;
2021/04/22 08:56:44;;;;;;;1.7;1.2;;;;;;;15.61;49.9502;939.8326;;;;
2021/04/22 08:59:07;;;;;;;2.6;1.5;;;;;;;18.14;43.46484;939.8141;;;;
2021/04/22 09:01:33;;;;;;;1.4;1.1;;;;;;;19.12;39.3457;939.8617;;;;
2021/04/22 09:03:58;;;;;;;1;0.8;;;;;;;18.99;38.48438;939.9263;;;;
2021/04/22 09:06:23;;;;;;;1.4;0.5;;;;;;;17.79;38.9375;939.9022;;;;
2021/04/22 09:08:48;;;;;;;1;0.8;;;;;;;16.79;41.7666;939.9496;;;;
2021/04/22 09:11:15;;;;;;;2;0.7;;;;;;;16.16;44.15918;939.8915;;;;
2021/04/22 09:13:40;;;;;;;2.3;1.2;;;;;;;16.11;44.17773;939.9644;;;;
2021/04/22 09:16:08;;;;;;;1.1;1;;;;;;;15.57;46.29492;939.9049;;;;
2021/04/22 09:18:34;;;;;;;1.2;1.1;;;;;;;14.81;47.40234;940.0115;;;;
2021/04/22 09:21:01;;;;;;;1.5;0.9;;;;;;;14.37;49.17285;939.9608;;;;
2021/04/22 09:23:24;;;;;;;6.7;1.4;;;;;;;13.74;49.98828;939.9934;;;;
2021/04/22 09:25:53;;;;;;;11.1;1;;;;;;;13.69;51.4209;940.0126;;;;
2021/04/22 09:28:22;;;;;;;1.2;1.1;;;;;;;13.81;51.74512;940.0479;;;;
2021/04/22 09:30:48;;;;;;;2.6;1.2;;;;;;;13.85;54.83301;939.9985;;;;
2021/04/22 09:33:14;;;;;;;3.6;1.7;;;;;;;13.8;55.69043;940.0591;;;;
2021/04/22 09:35:40;;;;;;;1.1;0.9;;;;;;;13.54;55.66797;940.0826;;;;
2021/04/22 09:38:06;;;;;;;1.4;0.9;;;;;;;13.5;55.31836;940.0634;;;;
2021/04/22 09:40:32;;;;;;;1.8;1.3;;;;;;;13.6;54.80273;940.0411;;;;
2021/04/22 09:42:57;;;;;;;1.8;1;;;;;;;13.8;56.58594;940.0406;;;;
2021/04/22 09:45:22;;;;;;;1.2;1.1;;;;;;;14;56.3252;940.0825;;;;
2021/04/22 09:47:48;;;;;;;2.5;1.4;;;;;;;14.33;53.03906;940.0793;;;;
2021/04/22 09:50:14;;;;;;;1;0.7;;;;;;;14.55;52.41992;940.0497;;;;
2021/04/22 09:52:41;;;;;;;1.6;1;;;;;;;15.45;54.30664;940.0334;;;;
2021/04/22 09:55:07;;;;;;;2.1;1.3;;;;;;;16.06;48.26563;940.0234;;;;
2021/04/22 09:57:34;;;;;;;2.9;1.2;;;;;;;16.44;45.45996;939.9152;;;;
2021/04/22 09:59:58;;;;;;;1.3;1.1;;;;;;;16.62;42.94336;939.911;;;;
2021/04/22 10:02:22;;;;;;;1.2;0.8;;;;;;;16.77;44.23242;939.908;;;;
2021/04/22 10:04:48;;;;;;;4.3;1.4;;;;;;;17.24;43.81543;939.8474;;;;
2021/04/22 10:07:14;;;;;;;2.5;1.2;;;;;;;18.43;39.21387;939.7683;;;;
2021/04/22 10:09:39;;;;;;;3;1.5;;;;;;;18.86;38.64746;939.8191;;;;
2021/04/22 10:12:05;;;;;;;0.9;0.8;;;;;;;19.18;40.23633;939.8145;;;;
2021/04/22 10:14:30;;;;;;;1;0.8;;;;;;;19.13;38.36914;939.7169;;;;
2021/04/22 10:16:55;;;;;;;2.8;0.8;;;;;;;19.92;37.01465;939.6406;;;;
2021/04/22 10:19:22;;;;;;;2.2;1;;;;;;;19.91;38.41309;939.6297;;;;
2021/04/22 10:21:47;;;;;;;1.3;0.8;;;;;;;19.94;37.9375;939.5619;;;;
2021/04/22 10:24:14;;;;;;;1.1;1;;;;;;;19.87;37.81445;939.5773;;;;
2021/04/22 10:26:39;;;;;;;1.5;1.1;;;;;;;19.7;39.21094;939.5115;;;;
2021/04/22 10:29:07;;;;;;;1.2;1.1;;;;;;;19.46;38.38574;939.4947;;;;
2021/04/22 10:31:32;;;;;;;1.2;1;;;;;;;18.81;41.25;939.4301;;;;
2021/04/22 10:33:58;;;;;;;1.2;1.1;;;;;;;17.51;43.1123;939.3697;;;;
2021/04/22 10:36:24;;;;;;;1.2;0.9;;;;;;;17.38;44.15527;939.3383;;;;
2021/04/22 10:38:49;;;;;;;1.7;1.4;;;;;;;17.39;44.45703;939.3261;;;;
2021/04/22 10:41:14;;;;;;;4.1;1.6;;;;;;;17.38;44.22461;939.3544;;;;
2021/04/22 10:43:41;;;;;;;1.1;1;;;;;;;17.64;43.92578;939.3535;;;;
2021/04/22 10:46:06;;;;;;;1.4;1.1;;;;;;;17.89;42.60352;939.3016;;;;
2021/04/22 10:48:33;;;;;;;1;0.8;;;;;;;18.09;42.11133;939.4313;;;;
2021/04/22 10:50:58;;;;;;;1.4;1.1;;;;;;;17.43;45.11133;939.3869;;;;
2021/04/22 10:53:24;;;;;;;2.3;1.5;;;;;;;17.03;47.39941;939.4146;;;;
2021/04/22 10:55:49;;;;;;;3;1.6;;;;;;;16.34;49.10645;939.5125;;;;
2021/04/22 10:58:15;;;;;;;2.9;1.6;;;;;;;15.84;50.19531;939.5801;;;;
2021/04/22 11:00:42;;;;;;;4.4;2.2;;;;;;;14.82;54.07813;939.6942;;;;
2021/04/22 11:03:07;;;;;;;3.3;1.9;;;;;;;14.15;57.37012;939.7414;;;;
2021/04/22 11:05:33;;;;;;;5;1.8;;;;;;;13.89;61.63867;939.7255;;;;
2021/04/22 11:07:58;;;;;;;4.1;2;;;;;;;13.48;63.68359;939.677;;;;
2021/04/22 11:10:23;;;;;;;1.9;1.7;;;;;;;13.12;66.84863;939.7748;;;;
2021/04/22 11:12:49;;;;;;;2.6;2.1;;;;;;;12.61;69.8457;939.8247;;;;
2021/04/22 11:15:14;;;;;;;4.3;2.1;;;;;;;12.23;72.88965;939.8184;;;;
2021/04/22 11:17:39;;;;;;;6.2;1.9;;;;;;;11.91;72.9834;939.8246;;;;
2021/04/22 11:20:08;;;;;;;3.1;1.7;;;;;;;11.65;75.41211;939.7416;;;;
2021/04/22 11:22:33;;;;;;;4.9;2.2;;;;;;;11.41;75.18848;939.7686;;;;
2021/04/22 11:24:58;;;;;;;2.4;1.6;;;;;;;11.38;75.46777;939.7866;;;;
2021/04/22 11:27:24;;;;;;;2.4;1.6;;;;;;;11.63;75.79785;939.8356;;;;
2021/04/22 11:29:50;;;;;;;2;1.9;;;;;;;11.77;75.125;939.8198;;;;
2021/04/22 11:32:15;;;;;;;1.6;1.5;;;;;;;11.76;73.98828;939.9394;;;;
2021/04/22 11:34:40;;;;;;;2.5;1.8;;;;;;;12.1;72.74219;939.9314;;;;
2021/04/22 11:37:05;;;;;;;2.4;1.6;;;;;;;11.67;71.77637;940.0728;;;;
2021/04/22 11:39:30;;;;;;;2.4;1.2;;;;;;;11.23;70.35352;940.1417;;;;
2021/04/22 11:41:59;;;;;;;2.4;1.7;;;;;;;11.08;72.35254;940.2211;;;;
2021/04/22 11:44:22;;;;;;;2.4;0.6;;;;;;;11.03;70.86035;940.3481;;;;
2021/04/22 11:46:49;;;;;;;1.9;1.2;;;;;;;10.74;72.39941;940.466;;;;
2021/04/22 11:49:14;;;;;;;1.8;0.9;;;;;;;10.61;71.94238;940.556;;;;
2021/04/22 11:51:39;;;;;;;0.8;0.8;;;;;;;10.35;70.96484;940.5519;;;;
2021/04/22 11:54:04;;;;;;;1.5;1.1;;;;;;;10.25;72.14648;940.6636;;;;
2021/04/22 11:56:30;;;;;;;0.9;0.9;;;;;;;10.37;75.40723;940.7536;;;;
2021/04/22 11:58:57;;;;;;;1.2;1.1;;;;;;;10.49;74.45898;940.8552;;;;
2021/04/22 12:01:23;;;;;;;6.5;1;;;;;;;10.91;76.43945;940.9289;;;;
2021/04/22 12:03:49;;;;;;;3.2;1.7;;;;;;;11.34;74.93652;941.0029;;;;
2021/04/22 12:06:16;;;;;;;1.2;1.1;;;;;;;11.49;72.99414;940.8276;;;;
2021/04/22 12:08:42;;;;;;;4.9;2;;;;;;;11.79;77.12012;940.8318;;;;
2021/04/22 12:11:07;;;;;;;2.7;1.6;;;;;;;12.07;73.06836;940.7766;;;;
2021/04/22 12:13:34;;;;;;;1.8;0.9;;;;;;;12.06;69.34277;940.6998;;;;
2021/04/22 12:16:03;;;;;;;2.7;1.5;;;;;;;12.08;73.90723;940.7367;;;;
2021/04/22 12:18:29;;;;;;;1.8;1.4;;;;;;;12.15;70.44727;940.7484;;;;
2021/04/22 12:20:54;;;;;;;1.6;1.4;;;;;;;12.38;67.9502;940.7519;;;;
2021/04/22 12:23:19;;;;;;;2.3;1.2;;;;;;;12.59;67.59277;940.7629;;;;
2021/04/22 12:25:44;;;;;;;1.5;0.8;;;;;;;12.64;66.75195;940.7955;;;;
2021/04/22 12:28:09;;;;;;;2.4;1.3;;;;;;;12.77;66.72559;940.8729;;;;
2021/04/22 12:30:34;;;;;;;1.4;1.2;;;;;;;12.72;70.27539;940.8678;;;;
2021/04/22 12:33:00;;;;;;;1.6;0.8;;;;;;;12.47;67.90527;940.918;;;;
2021/04/22 12:35:25;;;;;;;1.2;1;;;;;;;12.24;71.57227;940.877;;;;
2021/04/22 12:37:50;;;;;;;2.6;1.4;;;;;;;12.31;71.56152;940.8767;;;;
2021/04/22 12:40:15;;;;;;;1.4;1.3;;;;;;;12.09;72.66992;940.8636;;;;
2021/04/22 12:42:41;;;;;;;2.3;1.6;;;;;;;11.97;73.54297;940.8472;;;;
2021/04/22 12:45:06;;;;;;;1.3;1.2;;;;;;;11.81;74.4668;940.8521;;;;
2021/04/22 12:47:32;;;;;;;1;1;;;;;;;11.81;74.61621;940.8552;;;;
2021/04/22 12:49:58;;;;;;;1.5;0.9;;;;;;;12.25;73.31641;940.8763;;;;
2021/04/22 12:52:24;;;;;;;4.7;1.3;;;;;;;12.38;72.09961;940.8397;;;;
2021/04/22 12:54:49;;;;;;;1.8;1.5;;;;;;;12.33;71.3125;940.8553;;;;
2021/04/22 12:57:16;;;;;;;1.9;1.4;;;;;;;12.56;70.82324;940.889;;;;
2021/04/22 12:59:41;;;;;;;3.2;1.5;;;;;;;12.63;69.58301;940.952;;;;
2021/04/22 13:02:10;;;;;;;1.2;1;;;;;;;12.71;68.91699;940.9868;;;;
2021/04/22 13:04:33;;;;;;;2.5;1.6;;;;;;;12.59;70.0127;940.8733;;;;
2021/04/22 13:06:58;;;;;;;1.5;1.1;;;;;;;12.22;72.08398;940.928;;;;
2021/04/22 13:09:30;;;;;;;1.7;0.9;;;;;;;12.44;70.69922;940.9442;;;;
2021/04/22 13:11:57;;;;;;;1.5;1;;;;;;;12.4;70.87695;940.986;;;;
2021/04/22 13:14:24;;;;;;;1.5;1.1;;;;;;;12.44;70.9873;940.9897;;;;
2021/04/22 13:16:47;;;;;;;1.4;1.3;;;;;;;12.36;70.26367;940.981;;;;
2021/04/22 13:19:18;;;;;;;3.1;1.3;;;;;;;12.32;70.71289;940.86;;;;
2021/04/22 13:21:40;;;;;;;1.3;0.9;;;;;;;12.38;70.44824;940.9459;;;;
2021/04/22 13:24:03;;;;;;;1.6;1.2;;;;;;;12.14;71.625;940.9503;;;;
2021/04/22 13:26:31;;;;;;;2.3;1.6;;;;;;;12.27;70.33887;940.9939;;;;
2021/04/22 13:28:57;;;;;;;1.5;1.3;;;;;;;12.32;70.78223;940.9462;;;;
2021/04/22 13:31:21;;;;;;;4.6;2.7;;;;;;;11.97;70.62305;940.9717;;;;
2021/04/22 13:33:47;;;;;;;1.4;1;;;;;;;11.96;71.20605;940.9182;;;;
2021/04/22 13:36:12;;;;;;;2.6;1.3;;;;;;;11.98;71.16406;940.8569;;;;
2021/04/22 13:38:37;;;;;;;3.1;1.6;;;;;;;12.2;72.51758;940.835;;;;
2021/04/22 13:41:07;;;;;;;1.9;1.4;;;;;;;12.22;72.49609;940.8602;;;;
2021/04/22 13:43:32;;;;;;;2;1.6;;;;;;;11.82;70.25391;940.8038;;;;
2021/04/22 13:45:58;;;;;;;3.7;2.6;;;;;;;11.49;73.68066;940.7065;;;;
2021/04/22 13:48:23;;;;;;;3.3;3;;;;;;;11.26;76.58105;940.668;;;;
2021/04/22 13:50:50;;;;;;;3;1.8;;;;;;;11.13;74.35059;940.6926;;;;
2021/04/22 13:53:15;;;;;;;1.9;1.6;;;;;;;11.12;76.56738;940.7172;;;;
2021/04/22 13:55:40;;;;;;;2.1;1.8;;;;;;;11.28;78.13867;940.7208;;;;
2021/04/22 13:58:07;;;;;;;1.6;1.4;;;;;;;11.21;75.2334;940.77;;;;
2021/04/22 14:00:34;;;;;;;7.4;3.2;;;;;;;11.25;78.18066;940.7428;;;;
2021/04/22 14:02:59;;;;;;;7.2;4.2;;;;;;;11.41;76.45801;940.6855;;;;
2021/04/22 14:05:27;;;;;;;4.4;2.9;;;;;;;11.35;75.80664;940.6147;;;;
2021/04/22 14:07:52;;;;;;;3.9;2.3;;;;;;;10.97;75.67285;940.5886;;;;
2021/04/22 14:10:17;;;;;;;2.5;1.7;;;;;;;10.85;78.02539;940.5783;;;;
2021/04/22 14:12:43;;;;;;;3.2;2.3;;;;;;;10.78;76.26855;940.5016;;;;
2021/04/22 14:15:11;;;;;;;2.9;2.2;;;;;;;10.83;75.85156;940.5399;;;;
2021/04/22 14:17:35;;;;;;;5.6;4.1;;;;;;;10.77;74.30957;940.6241;;;;
2021/04/22 14:20:01;;;;;;;175.8;75.4;;;;;;;11.06;75.43555;940.6847;;;;
2021/04/22 14:22:26;;;;;;;2.4;1.9;;;;;;;11.09;74.25293;940.7241;;;;
2021/04/22 14:24:53;;;;;;;2.8;1.9;;;;;;;11.02;76.34375;940.7942;;;;
2021/04/22 14:27:18;;;;;;;2.2;1.5;;;;;;;11;77.4248;940.8127;;;;
2021/04/22 14:29:43;;;;;;;2.3;1.3;;;;;;;11.1;76.19629;940.8525;;;;